Time;durP1;ratioP1;P1;durP2;ratioP2;P2;SDS_P1;SDS_P2;PMS_P1;PMS_P2;Temp;Humidity;BMP_temperature;BMP_pressure;BME280_temperature;BME280_humidity;BME280_pressure;Samples;Min_cycle;Max_cycle;Signal;HPM_P1;HPM_P2
2023/07/16 00:00:41;;;;;;;;;;;;;;;28.12;91.87;97391.78;5041597;28;19936;-76
2023/07/16 00:03:07;;;;;;;;;;;;;;;27.35;98.91;97388.38;5039737;28;20651;-75
2023/07/16 00:05:34;;;;;;;;;;;;;;;27.93;94.12;97416.78;5040343;28;19931;-76
2023/07/16 00:08:00;;;;;;;;;;;;;;;27.67;95.68;97432.38;5036945;28;19948;-76
2023/07/16 00:10:26;;;;;;;;;;;;;;;27.94;92.91;97460.34;5042405;28;19932;-75
2023/07/16 00:12:52;;;;;;;;;;;;;;;28.41;89.32;97478.50;5024262;28;19936;-75
2023/07/16 00:15:20;;;;;;;;;;;;;;;27.75;93.75;97486.13;5042736;28;19933;-75
2023/07/16 00:17:46;;;;;;;;;;;;;;;27.96;91.36;97512.88;5041185;28;19929;-75
2023/07/16 00:20:13;;;;;;;;;;;;;;;27.70;93.58;97532.34;5039409;28;19982;-75
2023/07/16 00:22:39;;;;;;;;;;;;;;;27.77;93.27;97529.63;5042428;28;19924;-75
2023/07/16 00:25:06;;;;;;;;;;;;;;;28.16;90.56;97530.63;5043014;28;20012;-74
2023/07/16 00:27:32;;;;;;;;;;;;;;;28.48;88.25;97558.19;5043645;28;19925;-75
2023/07/16 00:29:59;;;;;;;;;;;;;;;28.74;85.80;97568.09;5040833;28;19929;-75
2023/07/16 00:32:26;;;;;;;;;;;;;;;28.98;83.97;97561.03;5043546;28;19932;-74
2023/07/16 00:34:53;;;;;;;;;;;;;;;28.27;88.61;97556.16;5039642;28;19932;-75
2023/07/16 00:37:19;;;;;;;;;;;;;;;28.30;88.13;97549.09;5021900;28;19925;-75
2023/07/16 00:39:45;;;;;;;;;;;;;;;27.57;94.94;97523.69;5022978;28;19935;-75
2023/07/16 00:42:12;;;;;;;;;;;;;;;27.05;100.00;97491.94;5044953;28;19946;-77
2023/07/16 00:44:38;;;;;;;;;;;;;;;26.43;100.00;97482.78;5044969;28;19935;-75
2023/07/16 00:47:04;;;;;;;;;;;;;;;26.66;100.00;97508.06;5040824;28;19929;-75
2023/07/16 00:49:32;;;;;;;;;;;;;;;27.18;100.00;97528.84;5041594;28;19925;-77
2023/07/16 00:51:59;;;;;;;;;;;;;;;27.39;100.00;97543.91;5042504;28;19975;-76
2023/07/16 00:54:26;;;;;;;;;;;;;;;28.14;95.85;97557.69;5038913;28;19940;-75
2023/07/16 00:56:52;;;;;;;;;;;;;;;28.14;98.49;97570.63;5040090;28;19929;-75
2023/07/16 00:59:19;;;;;;;;;;;;;;;28.01;99.53;97555.66;5040384;28;19925;-76
2023/07/16 01:01:45;;;;;;;;;;;;;;;28.29;96.15;97556.56;5039679;28;19929;-77
2023/07/16 01:04:11;;;;;;;;;;;;;;;28.85;92.81;97608.16;5039622;28;19959;-77
2023/07/16 01:06:41;;;;;;;;;;;;;;;28.98;95.72;97603.06;5046383;28;20035;-77
2023/07/16 01:09:08;;;;;;;;;;;;;;;27.63;100.00;97577.00;5046341;28;19929;-77
2023/07/16 01:11:35;;;;;;;;;;;;;;;26.96;100.00;97568.22;5046070;28;19928;-77
2023/07/16 01:14:02;;;;;;;;;;;;;;;26.47;100.00;97579.44;5043793;28;19932;-77
2023/07/16 01:16:29;;;;;;;;;;;;;;;26.28;100.00;97596.84;5046094;28;20002;-77
2023/07/16 01:18:55;;;;;;;;;;;;;;;26.89;100.00;97613.97;5035355;28;20012;-77
2023/07/16 01:21:23;;;;;;;;;;;;;;;27.20;100.00;97627.94;5046275;28;19950;-78
2023/07/16 01:24:13;;;;;;;;;;;;;;;27.87;100.00;97642.22;5044209;28;19925;-77
2023/07/16 01:26:56;;;;;;;;;;;;;;;28.52;100.00;97668.88;5042434;28;19931;-76
2023/07/16 01:29:35;;;;;;;;;;;;;;;28.77;100.00;97656.03;5041948;28;20393;-77
2023/07/16 01:32:04;;;;;;;;;;;;;;;29.03;100.00;97665.13;5038064;28;20016;-77
2023/07/16 01:34:33;;;;;;;;;;;;;;;29.10;100.00;97665.91;5040799;28;19929;-77
2023/07/16 01:36:59;;;;;;;;;;;;;;;29.07;100.00;97685.16;5040990;28;19937;-77
2023/07/16 01:39:26;;;;;;;;;;;;;;;29.04;100.00;97727.97;5042934;28;19925;-77
2023/07/16 01:41:52;;;;;;;;;;;;;;;28.94;100.00;97737.75;5042341;28;19925;-76
2023/07/16 01:44:19;;;;;;;;;;;;;;;28.92;100.00;97748.38;5044626;28;19931;-77
2023/07/16 01:46:50;;;;;;;;;;;;;;;28.75;100.00;97762.03;5041309;28;19928;-77
2023/07/16 01:49:16;;;;;;;;;;;;;;;28.40;100.00;97763.41;5043846;28;19929;-77
2023/07/16 01:51:42;;;;;;;;;;;;;;;28.78;100.00;97747.53;5037363;28;20488;-76
2023/07/16 01:54:09;;;;;;;;;;;;;;;28.73;100.00;97759.66;5042981;28;20383;-77
2023/07/16 01:56:35;;;;;;;;;;;;;;;28.89;100.00;97771.13;5045442;28;20024;-78
2023/07/16 01:59:01;;;;;;;;;;;;;;;28.98;100.00;97781.78;5045401;28;19932;-77
2023/07/16 02:01:28;;;;;;;;;;;;;;;29.08;100.00;97793.97;5044528;28;19957;-77
2023/07/16 02:03:55;;;;;;;;;;;;;;;29.20;100.00;97794.44;5023417;28;20023;-78
2023/07/16 02:06:22;;;;;;;;;;;;;;;29.24;100.00;97783.47;5043653;28;19935;-78
2023/07/16 02:08:48;;;;;;;;;;;;;;;29.08;100.00;97791.22;5040289;28;19933;-77
2023/07/16 02:11:14;;;;;;;;;;;;;;;28.55;100.00;97780.75;5042823;28;19925;-77
2023/07/16 02:13:41;;;;;;;;;;;;;;;28.80;100.00;97780.91;5044970;28;20265;-77
2023/07/16 02:16:07;;;;;;;;;;;;;;;28.85;100.00;97778.56;5041679;28;19929;-77
2023/07/16 02:18:33;;;;;;;;;;;;;;;29.02;100.00;97779.03;5036033;28;19929;-77
2023/07/16 02:21:02;;;;;;;;;;;;;;;29.00;100.00;97776.66;5034557;28;20039;-77
2023/07/16 02:23:28;;;;;;;;;;;;;;;28.71;100.00;97762.03;5045347;28;19928;-77
2023/07/16 02:25:54;;;;;;;;;;;;;;;28.34;100.00;97753.94;5040773;28;20498;-78
2023/07/16 02:28:21;;;;;;;;;;;;;;;27.57;100.00;97737.66;5044979;28;20032;-77
2023/07/16 02:30:47;;;;;;;;;;;;;;;27.30;100.00;97739.69;5039423;28;19925;-76
2023/07/16 02:33:13;;;;;;;;;;;;;;;27.50;100.00;97745.81;5038427;28;20020;-78
2023/07/16 02:35:40;;;;;;;;;;;;;;;27.95;100.00;97746.56;5039465;28;19935;-77
2023/07/16 02:38:07;;;;;;;;;;;;;;;28.14;100.00;97738.09;5040530;28;19929;-77
2023/07/16 02:40:34;;;;;;;;;;;;;;;28.46;100.00;97743.78;5038176;28;19940;-77
2023/07/16 02:43:00;;;;;;;;;;;;;;;28.68;100.00;97740.81;5040634;28;20590;-76
2023/07/16 02:45:26;;;;;;;;;;;;;;;28.85;100.00;97748.34;5026780;28;19972;-77
2023/07/16 02:47:53;;;;;;;;;;;;;;;28.98;100.00;97747.97;5012894;28;19929;-77
2023/07/16 02:50:19;;;;;;;;;;;;;;;28.59;100.00;97754.09;5039384;28;19933;-78
2023/07/16 02:52:45;;;;;;;;;;;;;;;28.08;100.00;97767.88;5041440;28;19925;-77
2023/07/16 02:55:13;;;;;;;;;;;;;;;28.46;100.00;97780.31;5043642;28;19931;-78
2023/07/16 02:57:39;;;;;;;;;;;;;;;28.64;100.00;97799.63;5044309;28;19929;-77
2023/07/16 03:00:06;;;;;;;;;;;;;;;28.80;100.00;97794.66;5040842;28;20345;-77
2023/07/16 03:02:33;;;;;;;;;;;;;;;28.96;100.00;97805.31;5026791;28;20450;-77
2023/07/16 03:04:59;;;;;;;;;;;;;;;29.00;100.00;97808.88;5020872;28;20284;-77
2023/07/16 03:07:25;;;;;;;;;;;;;;;29.03;100.00;97825.38;5044799;28;19929;-77
2023/07/16 03:09:52;;;;;;;;;;;;;;;29.13;100.00;97832.09;5037469;28;19982;-77
2023/07/16 03:12:19;;;;;;;;;;;;;;;29.14;100.00;97855.69;5044414;28;19929;-77
2023/07/16 03:14:46;;;;;;;;;;;;;;;29.12;100.00;97860.78;5043303;28;19928;-77
2023/07/16 03:17:12;;;;;;;;;;;;;;;29.02;100.00;97847.78;5041666;28;19932;-77
2023/07/16 03:19:38;;;;;;;;;;;;;;;29.09;100.00;97831.31;5033858;28;19924;-77
2023/07/16 03:22:05;;;;;;;;;;;;;;;29.12;100.00;97836.03;5033099;28;20669;-78
2023/07/16 03:24:31;;;;;;;;;;;;;;;29.02;100.00;97847.78;5039773;28;19947;-78
2023/07/16 03:26:58;;;;;;;;;;;;;;;28.96;100.00;97847.38;5043870;28;19925;-78
2023/07/16 03:29:25;;;;;;;;;;;;;;;28.77;100.00;97853.13;5040320;28;20008;-77
2023/07/16 03:31:52;;;;;;;;;;;;;;;28.74;100.00;97843.72;5042901;28;19967;-78
2023/07/16 03:34:18;;;;;;;;;;;;;;;28.79;100.00;97845.28;5039519;28;19931;-77
2023/07/16 03:36:44;;;;;;;;;;;;;;;28.54;100.00;97827.81;5042158;28;20549;-78
2023/07/16 03:39:11;;;;;;;;;;;;;;;28.70;100.00;97814.59;5044617;28;19929;-78
2023/07/16 03:41:37;;;;;;;;;;;;;;;28.67;100.00;97807.94;5034697;28;20608;-78
2023/07/16 03:44:04;;;;;;;;;;;;;;;28.48;100.00;97808.16;5043427;28;19936;-78
2023/07/16 03:46:32;;;;;;;;;;;;;;;28.49;100.00;97795.22;5040349;28;20016;-78
2023/07/16 03:48:58;;;;;;;;;;;;;;;27.59;100.00;97795.66;5042833;28;19952;-77
2023/07/16 03:51:24;;;;;;;;;;;;;;;27.91;100.00;97800.66;5038544;28;20384;-78
2023/07/16 03:53:51;;;;;;;;;;;;;;;28.21;100.00;97809.56;5045383;28;19936;-77
2023/07/16 03:56:17;;;;;;;;;;;;;;;28.52;100.00;97817.22;5048050;28;19925;-77
2023/07/16 03:58:43;;;;;;;;;;;;;;;28.68;100.00;97804.03;5044344;28;19925;-78
2023/07/16 04:01:10;;;;;;;;;;;;;;;28.70;100.00;97782.44;5047334;28;20032;-78
2023/07/16 04:03:37;;;;;;;;;;;;;;;28.22;100.00;97772.69;5043653;28;19925;-78
2023/07/16 04:06:04;;;;;;;;;;;;;;;28.39;100.00;97777.50;5046010;28;20338;-77
2023/07/16 04:08:30;;;;;;;;;;;;;;;28.60;100.00;97791.34;5016533;28;19929;-77
2023/07/16 04:10:56;;;;;;;;;;;;;;;28.72;100.00;97813.06;5027273;28;19929;-77
2023/07/16 04:13:23;;;;;;;;;;;;;;;28.70;100.00;97809.91;5047393;28;19925;-76
2023/07/16 04:15:49;;;;;;;;;;;;;;;28.81;100.00;97821.72;5043975;28;20148;-78
2023/07/16 04:18:16;;;;;;;;;;;;;;;28.77;100.00;97822.91;5041245;28;20047;-77
2023/07/16 04:20:43;;;;;;;;;;;;;;;28.68;100.00;97823.25;5034169;28;20317;-77
2023/07/16 04:23:10;;;;;;;;;;;;;;;28.81;100.00;97813.50;5041795;28;19968;-77
2023/07/16 04:25:36;;;;;;;;;;;;;;;28.81;100.00;97821.72;5044286;28;19986;-77
2023/07/16 04:28:03;;;;;;;;;;;;;;;28.84;100.00;97829.22;5034941;28;19936;-77
2023/07/16 04:30:30;;;;;;;;;;;;;;;28.77;100.00;97847.63;5038786;28;20003;-77
2023/07/16 04:32:56;;;;;;;;;;;;;;;28.64;100.00;97865.59;5045532;28;19939;-77
2023/07/16 04:35:22;;;;;;;;;;;;;;;28.69;100.00;97876.25;5042249;28;19928;-77
2023/07/16 04:37:50;;;;;;;;;;;;;;;28.60;100.00;97897.72;5044317;28;20019;-77
2023/07/16 04:40:16;;;;;;;;;;;;;;;28.60;100.00;97892.25;5047024;28;20767;-77
2023/07/16 04:42:43;;;;;;;;;;;;;;;28.50;100.00;97891.00;5038128;28;19929;-77
2023/07/16 04:45:09;;;;;;;;;;;;;;;28.60;100.00;97904.03;5023875;28;19983;-77
2023/07/16 04:47:36;;;;;;;;;;;;;;;28.71;100.00;97909.63;5042519;28;20020;-77
2023/07/16 04:50:02;;;;;;;;;;;;;;;28.74;100.00;97904.16;5041785;28;19972;-77
2023/07/16 04:52:28;;;;;;;;;;;;;;;28.73;100.00;97907.28;5038251;28;19933;-77
2023/07/16 04:54:56;;;;;;;;;;;;;;;28.68;100.00;97911.19;5042997;28;19951;-77
2023/07/16 04:57:22;;;;;;;;;;;;;;;28.52;100.00;97907.91;5028502;28;19932;-77
2023/07/16 04:59:49;;;;;;;;;;;;;;;28.60;100.00;97925.22;5042237;28;20571;-77
2023/07/16 05:02:17;;;;;;;;;;;;;;;28.27;100.00;97928.88;5046303;28;19925;-78
2023/07/16 05:04:44;;;;;;;;;;;;;;;28.28;100.00;97930.47;5041645;28;19935;-77
2023/07/16 05:07:10;;;;;;;;;;;;;;;28.18;100.00;97936.63;5046122;28;19933;-77
2023/07/16 05:09:37;;;;;;;;;;;;;;;28.13;100.00;97945.97;5041618;28;19931;-76
2023/07/16 05:12:05;;;;;;;;;;;;;;;28.13;100.00;97959.72;5043620;28;19928;-77
2023/07/16 05:14:31;;;;;;;;;;;;;;;28.20;100.00;97961.75;5046225;28;19925;-78
2023/07/16 05:16:57;;;;;;;;;;;;;;;28.20;100.00;97973.53;5015790;28;19950;-78
2023/07/16 05:19:24;;;;;;;;;;;;;;;28.18;100.00;97977.81;5020217;28;19935;-77
2023/07/16 05:21:50;;;;;;;;;;;;;;;27.99;100.00;97975.22;5044019;28;19929;-78
2023/07/16 05:24:16;;;;;;;;;;;;;;;27.76;100.00;97975.38;5039406;28;20058;-78
2023/07/16 05:26:43;;;;;;;;;;;;;;;27.81;100.00;97973.09;5045290;28;19935;-77
2023/07/16 05:29:10;;;;;;;;;;;;;;;27.75;100.00;97974.56;5041687;28;20015;-78
2023/07/16 05:31:37;;;;;;;;;;;;;;;27.67;100.00;97970.16;5044258;28;19931;-77
2023/07/16 05:34:03;;;;;;;;;;;;;;;27.65;100.00;97971.69;5016144;28;19935;-77
2023/07/16 05:36:29;;;;;;;;;;;;;;;27.64;100.00;97978.34;5042145;28;19935;-77
2023/07/16 05:38:56;;;;;;;;;;;;;;;27.73;100.00;97985.13;5025309;28;19928;-78
2023/07/16 05:41:22;;;;;;;;;;;;;;;27.74;100.00;97981.22;5021587;28;19933;-77
2023/07/16 05:43:49;;;;;;;;;;;;;;;27.71;100.00;97984.72;5024700;28;20422;-77
2023/07/16 05:46:16;;;;;;;;;;;;;;;27.67;100.00;97988.56;5036097;28;20453;-78
2023/07/16 05:48:42;;;;;;;;;;;;;;;27.52;100.00;97984.06;5026310;28;19999;-77
2023/07/16 05:51:09;;;;;;;;;;;;;;;27.52;100.00;97976.63;5037412;28;19925;-76
2023/07/16 05:53:35;;;;;;;;;;;;;;;27.62;100.00;97983.41;5042980;28;20402;-77
2023/07/16 05:56:01;;;;;;;;;;;;;;;27.52;100.00;97993.09;5019548;28;19935;-76
2023/07/16 05:58:28;;;;;;;;;;;;;;;27.52;100.00;97995.81;5042185;28;19928;-77
2023/07/16 06:00:54;;;;;;;;;;;;;;;27.52;100.00;98001.31;5044657;28;19925;-77
2023/07/16 06:03:22;;;;;;;;;;;;;;;27.45;100.00;97997.69;5023365;28;20090;-77
2023/07/16 06:05:48;;;;;;;;;;;;;;;27.30;100.00;98011.16;5043542;28;19925;-77
2023/07/16 06:08:14;;;;;;;;;;;;;;;27.38;100.00;98009.31;5022526;28;20379;-78
2023/07/16 06:10:41;;;;;;;;;;;;;;;27.52;100.00;97995.81;5042862;28;19929;-78
2023/07/16 06:13:07;;;;;;;;;;;;;;;27.65;100.00;98002.66;5044436;28;19928;-77
2023/07/16 06:15:33;;;;;;;;;;;;;;;27.38;100.00;98008.53;5041809;28;19925;-77
2023/07/16 06:18:00;;;;;;;;;;;;;;;27.39;100.00;98026.56;5040960;28;19932;-77
2023/07/16 06:20:28;;;;;;;;;;;;;;;27.43;100.00;98022.75;5031226;28;19925;-78
2023/07/16 06:22:54;;;;;;;;;;;;;;;27.62;98.57;98014.38;5038548;28;20431;-77
2023/07/16 06:25:21;;;;;;;;;;;;;;;27.36;100.00;98014.38;5041754;28;20569;-77
2023/07/16 06:27:48;;;;;;;;;;;;;;;27.35;100.00;98023.78;5044155;28;20396;-77
2023/07/16 06:30:14;;;;;;;;;;;;;;;27.57;99.72;98033.13;5041251;28;19925;-76
2023/07/16 06:32:40;;;;;;;;;;;;;;;27.54;98.96;98031.94;5043450;28;19932;-77
2023/07/16 06:35:07;;;;;;;;;;;;;;;27.66;100.00;98026.22;5022224;28;19929;-77
2023/07/16 06:37:35;;;;;;;;;;;;;;;27.58;98.75;98032.75;5016991;28;19928;-77
2023/07/16 06:40:01;;;;;;;;;;;;;;;27.71;97.93;98041.53;5034458;28;19936;-79
2023/07/16 06:42:27;;;;;;;;;;;;;;;27.74;97.56;98043.53;5037129;28;19931;-77
2023/07/16 06:44:54;;;;;;;;;;;;;;;27.59;99.90;98047.25;5043995;28;19951;-77
2023/07/16 06:47:20;;;;;;;;;;;;;;;27.70;98.67;98042.69;5037557;28;20409;-78
2023/07/16 06:49:46;;;;;;;;;;;;;;;27.64;99.53;98053.22;5044728;28;20493;-78
2023/07/16 06:52:19;;;;;;;;;;;;;;;27.69;97.75;98055.66;5045075;28;19924;-78
2023/07/16 06:54:49;;;;;;;;;;;;;;;27.68;97.14;98058.75;5042149;28;20400;-78
2023/07/16 06:57:16;;;;;;;;;;;;;;;27.70;97.71;98068.19;5044997;28;20412;-77
2023/07/16 06:59:42;;;;;;;;;;;;;;;27.63;98.20;98076.34;5040681;28;19929;-77
2023/07/16 07:02:08;;;;;;;;;;;;;;;27.72;96.69;98073.31;5019637;28;19929;-78
2023/07/16 07:04:35;;;;;;;;;;;;;;;27.73;97.53;98072.16;5040527;28;19947;-77
2023/07/16 07:07:01;;;;;;;;;;;;;;;27.73;98.26;98075.69;5043308;28;19949;-77
2023/07/16 07:09:27;;;;;;;;;;;;;;;27.65;98.34;98076.75;5039965;28;20571;-76
2023/07/16 07:11:55;;;;;;;;;;;;;;;27.24;99.57;98069.44;5042104;28;20481;-77
2023/07/16 07:14:21;;;;;;;;;;;;;;;27.32;99.58;98073.88;5026861;28;19933;-78
2023/07/16 07:16:48;;;;;;;;;;;;;;;27.48;97.84;98073.75;5040485;28;19972;-77
2023/07/16 07:19:14;;;;;;;;;;;;;;;27.30;97.02;98079.72;5034178;28;19933;-77
2023/07/16 07:21:40;;;;;;;;;;;;;;;27.38;96.18;98085.31;5036350;28;19928;-77
2023/07/16 07:24:07;;;;;;;;;;;;;;;27.42;96.08;98089.69;5036736;28;19929;-78
2023/07/16 07:26:33;;;;;;;;;;;;;;;27.55;95.21;98093.03;5048145;28;20012;-77
2023/07/16 07:29:01;;;;;;;;;;;;;;;27.56;95.16;98081.72;5045752;28;19932;-78
2023/07/16 07:31:27;;;;;;;;;;;;;;;27.29;95.59;98080.91;5046239;28;19925;-77
2023/07/16 07:33:54;;;;;;;;;;;;;;;27.32;95.94;98082.91;5045986;28;19925;-77
2023/07/16 07:36:20;;;;;;;;;;;;;;;27.30;96.45;98078.94;5043440;28;20315;-77
2023/07/16 07:38:46;;;;;;;;;;;;;;;27.46;95.25;98084.28;5047135;28;19925;-77
2023/07/16 07:41:13;;;;;;;;;;;;;;;27.42;94.39;98084.22;5040847;28;20043;-77
2023/07/16 07:43:39;;;;;;;;;;;;;;;27.51;95.04;98078.50;5047170;28;19929;-77
2023/07/16 07:46:07;;;;;;;;;;;;;;;27.61;94.41;98077.84;5044245;28;19929;-78
2023/07/16 07:48:33;;;;;;;;;;;;;;;26.99;93.20;98084.69;5023794;28;19925;-77
2023/07/16 07:50:59;;;;;;;;;;;;;;;27.10;96.62;98080.97;5037654;28;19957;-78
2023/07/16 07:53:26;;;;;;;;;;;;;;;27.11;95.02;98079.03;5045520;28;19929;-76
2023/07/16 07:55:52;;;;;;;;;;;;;;;27.34;95.08;98083.31;5045935;28;20297;-78
2023/07/16 07:58:18;;;;;;;;;;;;;;;27.42;93.59;98092.44;5040935;28;19933;-77
2023/07/16 08:00:44;;;;;;;;;;;;;;;27.53;90.78;98089.91;5046629;28;20436;-77
2023/07/16 08:03:12;;;;;;;;;;;;;;;27.63;90.00;98097.50;5043759;28;19929;-77
2023/07/16 08:05:39;;;;;;;;;;;;;;;27.14;89.12;98081.03;5045882;28;20666;-78
2023/07/16 08:08:05;;;;;;;;;;;;;;;25.88;95.33;98085.63;5043661;28;19936;-77
2023/07/16 08:10:31;;;;;;;;;;;;;;;26.26;99.05;98091.16;5044331;28;19924;-77
2023/07/16 08:12:57;;;;;;;;;;;;;;;26.76;94.18;98098.38;5047624;28;19928;-78
2023/07/16 08:15:24;;;;;;;;;;;;;;;26.96;91.37;98105.41;5044064;28;19928;-77
2023/07/16 08:17:50;;;;;;;;;;;;;;;26.86;91.92;98105.22;5044633;28;19924;-78
2023/07/16 08:20:18;;;;;;;;;;;;;;;26.85;89.54;98098.16;5033616;28;19976;-77
2023/07/16 08:22:44;;;;;;;;;;;;;;;26.95;91.90;98094.81;5039879;28;19932;-79
2023/07/16 08:25:10;;;;;;;;;;;;;;;27.09;90.83;98101.31;5038532;28;19968;-77
2023/07/16 08:27:38;;;;;;;;;;;;;;;27.12;90.67;98106.06;5023618;28;19931;-77
2023/07/16 08:30:05;;;;;;;;;;;;;;;27.07;92.61;98109.13;5043390;28;19929;-77
2023/07/16 08:32:31;;;;;;;;;;;;;;;26.88;94.85;98106.44;5045750;28;20028;-78
2023/07/16 08:34:57;;;;;;;;;;;;;;;26.95;94.67;98100.31;5042538;28;20006;-77
2023/07/16 08:37:25;;;;;;;;;;;;;;;27.06;93.54;98107.53;5040624;28;19925;-78
2023/07/16 08:39:52;;;;;;;;;;;;;;;27.04;94.04;98109.06;5027690;28;20020;-78
2023/07/16 08:42:19;;;;;;;;;;;;;;;27.13;94.64;98104.94;5041619;28;19983;-78
2023/07/16 08:44:45;;;;;;;;;;;;;;;27.12;94.83;98108.81;5044849;28;19959;-78
2023/07/16 08:47:12;;;;;;;;;;;;;;;27.17;95.62;98103.00;5041440;28;20331;-76
2023/07/16 08:49:40;;;;;;;;;;;;;;;27.07;94.88;98106.38;5041190;28;20366;-78
2023/07/16 08:52:07;;;;;;;;;;;;;;;27.20;95.42;98090.53;5037620;28;20023;-78
2023/07/16 08:54:35;;;;;;;;;;;;;;;27.37;95.39;98081.78;5042809;28;20031;-77
2023/07/16 08:57:02;;;;;;;;;;;;;;;27.41;95.80;98068.94;5044527;28;19925;-78
2023/07/16 08:59:28;;;;;;;;;;;;;;;27.08;94.60;98063.31;5042184;28;19928;-78
2023/07/16 09:01:55;;;;;;;;;;;;;;;27.07;96.78;98068.00;5044195;28;19936;-79
2023/07/16 09:04:22;;;;;;;;;;;;;;;27.04;94.93;98068.75;5041159;28;19986;-77
2023/07/16 09:06:48;;;;;;;;;;;;;;;26.86;98.64;98077.81;5042887;28;19932;-77
2023/07/16 09:09:20;;;;;;;;;;;;;;;27.06;98.16;98071.91;5046793;28;19935;-78
2023/07/16 09:11:48;;;;;;;;;;;;;;;27.17;96.73;98064.63;5045099;28;19924;-77
2023/07/16 09:14:16;;;;;;;;;;;;;;;27.19;97.51;98069.75;5032856;28;20027;-77
2023/07/16 09:16:42;;;;;;;;;;;;;;;27.33;96.52;98072.72;5040810;28;20661;-78
2023/07/16 09:19:10;;;;;;;;;;;;;;;27.40;94.90;98074.78;5034276;28;19925;-77
2023/07/16 09:21:37;;;;;;;;;;;;;;;27.49;94.54;98076.13;5038445;28;19924;-78
2023/07/16 09:24:07;;;;;;;;;;;;;;;27.56;94.00;98068.00;5037785;28;19959;-79
2023/07/16 09:26:33;;;;;;;;;;;;;;;27.47;90.55;98072.97;5045959;28;19940;-79
2023/07/16 09:29:01;;;;;;;;;;;;;;;27.34;97.02;98085.28;5043126;28;19936;-78
2023/07/16 09:31:27;;;;;;;;;;;;;;;27.30;94.70;98087.94;5044345;28;20003;-78
2023/07/16 09:33:54;;;;;;;;;;;;;;;27.14;97.19;98083.78;5044128;28;19982;-77
2023/07/16 09:36:24;;;;;;;;;;;;;;;26.63;96.33;98084.06;5041664;28;19992;-78
2023/07/16 09:38:50;;;;;;;;;;;;;;;26.73;100.00;98088.13;5044575;28;19994;-77
2023/07/16 09:41:17;;;;;;;;;;;;;;;27.00;98.31;98087.06;5039155;28;19925;-80
2023/07/16 09:43:44;;;;;;;;;;;;;;;27.16;97.82;98100.66;5045088;28;19979;-78
2023/07/16 09:46:12;;;;;;;;;;;;;;;27.32;97.64;98098.56;5041988;28;19929;-78
2023/07/16 09:48:38;;;;;;;;;;;;;;;27.44;97.23;98094.84;5026880;28;19931;-76
2023/07/16 09:51:08;;;;;;;;;;;;;;;27.43;95.83;98094.06;5045183;28;19968;-77
2023/07/16 09:53:37;;;;;;;;;;;;;;;27.52;95.27;98094.59;5038792;28;19925;-78
2023/07/16 09:56:05;;;;;;;;;;;;;;;27.39;95.35;98084.19;5034142;28;20373;-78
2023/07/16 09:58:32;;;;;;;;;;;;;;;27.48;94.59;98090.22;5043853;28;19928;-78
2023/07/16 10:00:59;;;;;;;;;;;;;;;27.63;92.53;98090.06;5045213;28;19925;-81
2023/07/16 10:03:27;;;;;;;;;;;;;;;27.65;92.47;98082.25;5041798;28;19924;-77
2023/07/16 10:05:53;;;;;;;;;;;;;;;27.58;91.73;98090.38;5043937;28;20031;-77
2023/07/16 10:08:20;;;;;;;;;;;;;;;27.73;92.58;98083.13;5040603;28;19936;-78
2023/07/16 10:10:48;;;;;;;;;;;;;;;27.70;93.73;98083.84;5043561;28;19935;-77
2023/07/16 10:13:15;;;;;;;;;;;;;;;27.60;92.87;98079.81;5040800;28;19929;-78
2023/07/16 10:15:51;;;;;;;;;;;;;;;27.78;91.04;98083.59;5041642;28;19982;-78
2023/07/16 10:18:31;;;;;;;;;;;;;;;27.79;91.20;98084.41;5038043;28;22422;-78
2023/07/16 10:21:07;;;;;;;;;;;;;;;27.68;91.31;98072.47;5034208;28;19951;-77
2023/07/16 10:23:40;;;;;;;;;;;;;;;27.70;90.28;98073.69;5022064;28;19929;-78
2023/07/16 10:26:09;;;;;;;;;;;;;;;27.65;91.13;98071.25;5042491;28;19929;-77
2023/07/16 10:28:36;;;;;;;;;;;;;;;27.68;91.72;98076.00;5042636;28;20502;-78
2023/07/16 10:31:03;;;;;;;;;;;;;;;27.71;89.99;98072.53;5045067;28;20008;-77
2023/07/16 10:33:30;;;;;;;;;;;;;;;27.46;87.95;98076.84;5039450;28;20028;-76
2023/07/16 10:35:57;;;;;;;;;;;;;;;26.72;93.87;98078.31;5023838;28;20055;-77
2023/07/16 10:38:24;;;;;;;;;;;;;;;26.66;97.32;98066.09;5044398;28;19928;-77
2023/07/16 10:40:51;;;;;;;;;;;;;;;26.75;98.30;98059.22;5041277;28;19932;-77
2023/07/16 10:43:17;;;;;;;;;;;;;;;27.38;95.50;98057.91;5043583;28;20460;-77
2023/07/16 10:45:45;;;;;;;;;;;;;;;27.52;91.99;98063.63;5039982;28;19935;-77
2023/07/16 10:48:11;;;;;;;;;;;;;;;27.70;91.20;98059.16;5042393;28;19924;-78
2023/07/16 10:50:39;;;;;;;;;;;;;;;27.86;90.01;98060.56;5039085;28;20019;-76
2023/07/16 10:53:05;;;;;;;;;;;;;;;27.43;90.25;98052.91;5041245;28;20015;-77
2023/07/16 10:55:37;;;;;;;;;;;;;;;27.32;89.58;98043.72;5032620;28;19925;-76
2023/07/16 10:58:05;;;;;;;;;;;;;;;27.48;91.13;98036.13;5036496;28;19936;-78
2023/07/16 11:00:31;;;;;;;;;;;;;;;27.78;88.21;98038.91;5045841;28;19936;-78
2023/07/16 11:02:58;;;;;;;;;;;;;;;27.95;86.47;98032.03;5044612;28;19952;-78
2023/07/16 11:05:24;;;;;;;;;;;;;;;27.91;87.26;98032.00;5046636;28;20414;-78
2023/07/16 11:07:52;;;;;;;;;;;;;;;27.48;87.63;98041.59;5043410;28;20343;-78
2023/07/16 11:10:18;;;;;;;;;;;;;;;27.80;88.95;98044.78;5046033;28;19924;-77
2023/07/16 11:12:45;;;;;;;;;;;;;;;28.11;84.49;98044.44;5048063;28;19932;-77
2023/07/16 11:15:11;;;;;;;;;;;;;;;28.02;84.65;98045.84;5044763;28;20395;-77
2023/07/16 11:17:38;;;;;;;;;;;;;;;27.95;86.72;98048.50;5046903;28;19928;-78
2023/07/16 11:20:07;;;;;;;;;;;;;;;28.21;85.01;98045.72;5038371;28;19933;-77
2023/07/16 11:22:34;;;;;;;;;;;;;;;28.38;83.04;98036.88;5050417;28;19990;-78
2023/07/16 11:25:01;;;;;;;;;;;;;;;28.22;84.01;98041.81;5045542;28;20011;-77
2023/07/16 11:27:28;;;;;;;;;;;;;;;28.07;85.40;98040.06;5047511;28;19932;-78
2023/07/16 11:29:56;;;;;;;;;;;;;;;27.87;87.60;98037.47;5044274;28;19931;-77
2023/07/16 11:32:29;;;;;;;;;;;;;;;28.19;84.16;98045.31;5028523;28;20079;-78
2023/07/16 11:34:55;;;;;;;;;;;;;;;28.41;83.07;98053.41;5042983;28;19931;-77
2023/07/16 11:37:22;;;;;;;;;;;;;;;27.98;81.88;98050.53;5045558;28;19928;-78
2023/07/16 11:39:48;;;;;;;;;;;;;;;27.55;85.64;98035.44;5042304;28;19936;-76
2023/07/16 11:42:18;;;;;;;;;;;;;;;27.29;88.37;98028.81;5044995;28;19939;-77
2023/07/16 11:44:49;;;;;;;;;;;;;;;27.55;88.75;98033.50;5047123;28;19939;-77
2023/07/16 11:47:15;;;;;;;;;;;;;;;28.08;84.93;98025.16;5043768;28;19928;-77
2023/07/16 11:49:42;;;;;;;;;;;;;;;28.16;83.39;98027.59;5046031;28;19925;-76
2023/07/16 11:52:08;;;;;;;;;;;;;;;28.32;83.08;98024.63;5043079;28;19929;-78
2023/07/16 11:54:34;;;;;;;;;;;;;;;28.48;80.96;98025.22;5045651;28;19925;-77
2023/07/16 11:57:01;;;;;;;;;;;;;;;28.49;80.06;98021.31;5039720;28;19936;-76
2023/07/16 11:59:28;;;;;;;;;;;;;;;28.46;80.26;98029.50;5047957;28;20024;-77
2023/07/16 12:01:55;;;;;;;;;;;;;;;28.26;80.88;98026.16;5046837;28;20035;-77
2023/07/16 12:04:21;;;;;;;;;;;;;;;28.35;81.21;98016.44;5043743;28;19929;-76
2023/07/16 12:06:47;;;;;;;;;;;;;;;28.13;82.65;98024.84;5028209;28;19928;-78
2023/07/16 12:09:14;;;;;;;;;;;;;;;27.42;89.34;98021.13;5043062;28;20482;-77
2023/07/16 12:11:40;;;;;;;;;;;;;;;27.19;91.02;98020.41;5034362;28;20035;-77
2023/07/16 12:14:07;;;;;;;;;;;;;;;27.50;90.50;98011.88;5043628;28;19935;-77
2023/07/16 12:16:34;;;;;;;;;;;;;;;27.93;87.29;98006.91;5043603;28;19928;-77
2023/07/16 12:19:01;;;;;;;;;;;;;;;28.06;86.41;98005.53;5035564;28;19925;-76
2023/07/16 12:21:27;;;;;;;;;;;;;;;28.21;85.34;98010.81;5047467;28;20348;-77
2023/07/16 12:23:53;;;;;;;;;;;;;;;28.33;84.71;98005.06;5021501;28;19928;-76
2023/07/16 12:26:20;;;;;;;;;;;;;;;28.33;84.71;98005.06;5045672;28;20427;-77
2023/07/16 12:28:46;;;;;;;;;;;;;;;28.41;83.72;97994.91;5046352;28;19982;-77
2023/07/16 12:31:12;;;;;;;;;;;;;;;27.86;86.04;98002.13;5042982;28;20278;-77
2023/07/16 12:33:40;;;;;;;;;;;;;;;27.78;87.32;98004.00;5047005;28;19925;-78
2023/07/16 12:36:06;;;;;;;;;;;;;;;28.01;86.45;98005.84;5040482;28;19928;-78
2023/07/16 12:38:33;;;;;;;;;;;;;;;28.24;85.84;98001.03;5029487;28;20503;-77
2023/07/16 12:40:59;;;;;;;;;;;;;;;28.27;85.38;97994.78;5038648;28;19929;-78